Time;durP1;ratioP1;P1;durP2;ratioP2;P2;SDS_P1;SDS_P2;PMS_P1;PMS_P2;Temp;Humidity;BMP_temperature;BMP_pressure;BME280_temperature;BME280_humidity;BME280_pressure;Samples;Min_cycle;Max_cycle;Signal;HPM_P1;HPM_P2
2022/01/04 00:02:18;;;;;;;2.72;1.60;;;21.10;65.50;;;;;;5072635;27;85796;-68
2022/01/04 00:04:43;;;;;;;4.03;1.63;;;21.10;65.60;;;;;;5071335;27;85629;-70
2022/01/04 00:07:09;;;;;;;3.38;1.52;;;21.10;65.70;;;;;;5071956;27;86718;-71
2022/01/04 00:09:39;;;;;;;2.28;1.50;;;21.10;65.60;;;;;;5072747;27;86410;-69
2022/01/04 00:14:51;;;;;;;2.72;1.40;;;21.10;65.50;;;;;;5072518;27;86776;-68
2022/01/04 00:17:16;;;;;;;2.05;1.60;;;21.10;65.50;;;;;;5072088;27;86919;-69
2022/01/04 00:19:42;;;;;;;4.90;1.92;;;21.00;65.50;;;;;;5071817;27;87131;-72
2022/01/04 00:22:08;;;;;;;2.17;1.42;;;21.00;65.30;;;;;;5071380;27;86439;-73
2022/01/04 00:24:35;;;;;;;2.28;1.48;;;21.00;65.40;;;;;;5070854;27;86353;-70
2022/01/04 00:27:00;;;;;;;2.22;1.10;;;21.00;65.20;;;;;;5071841;27;86566;-69
2022/01/04 00:29:26;;;;;;;4.10;1.52;;;21.00;65.30;;;;;;5072253;27;86588;-68
2022/01/04 00:31:52;;;;;;;2.83;1.50;;;21.00;65.30;;;;;;5072240;27;86261;-71
2022/01/04 00:34:18;;;;;;;2.58;1.50;;;21.00;65.10;;;;;;5070367;27;86937;-69
2022/01/04 00:36:44;;;;;;;2.40;1.50;;;21.00;65.30;;;;;;5071048;27;86920;-72
2022/01/04 00:39:09;;;;;;;3.08;1.70;;;21.00;65.20;;;;;;5071389;27;86629;-69
2022/01/04 00:41:35;;;;;;;2.90;1.55;;;21.00;66.20;;;;;;5071730;27;87022;-69
2022/01/04 00:44:00;;;;;;;2.08;1.25;;;21.00;65.20;;;;;;5071367;27;85695;-69
2022/01/04 00:46:26;;;;;;;2.75;1.55;;;21.00;65.10;;;;;;5070742;27;86629;-69
2022/01/04 00:49:10;;;;;;;3.33;1.52;;;21.00;65.10;;;;;;5070598;27;86356;-72
2022/01/04 00:51:41;;;;;;;2.83;1.77;;;21.00;65.00;;;;;;5070636;27;86617;-69
2022/01/04 00:54:09;;;;;;;2.22;1.50;;;21.00;65.00;;;;;;5072047;27;86599;-69
2022/01/04 00:56:36;;;;;;;2.10;1.58;;;21.00;64.80;;;;;;5071404;27;86755;-69
2022/01/04 00:59:02;;;;;;;2.60;1.35;;;20.90;65.10;;;;;;5070279;27;86243;-69
2022/01/04 01:01:28;;;;;;;2.80;1.45;;;21.00;65.00;;;;;;5071285;27;86408;-70
2022/01/04 01:03:56;;;;;;;1.90;1.48;;;21.00;65.00;;;;;;5070788;27;86076;-69
2022/01/04 01:06:22;;;;;;;2.75;1.48;;;21.00;65.10;;;;;;5070617;27;87789;-69
2022/01/04 01:08:48;;;;;;;2.85;1.40;;;20.90;64.80;;;;;;5051094;27;89229;-71
2022/01/04 01:11:14;;;;;;;2.45;1.73;;;20.90;64.90;;;;;;5073378;27;86046;-71
2022/01/04 01:13:40;;;;;;;2.00;1.23;;;20.90;64.70;;;;;;5075029;27;86614;-69
2022/01/04 01:16:06;;;;;;;3.25;1.42;;;20.90;64.90;;;;;;5074023;27;86477;-68
2022/01/04 01:18:32;;;;;;;1.70;1.30;;;20.90;64.90;;;;;;5073894;27;86314;-68
2022/01/04 01:20:59;;;;;;;3.03;1.50;;;20.90;64.70;;;;;;5073203;27;86425;-68
2022/01/04 01:23:25;;;;;;;2.92;1.55;;;20.90;64.70;;;;;;5074336;27;86021;-69
2022/01/04 01:25:51;;;;;;;2.15;1.20;;;20.90;64.90;;;;;;5055281;27;89682;-69
2022/01/04 01:28:17;;;;;;;2.30;1.35;;;20.90;64.70;;;;;;5073425;27;86577;-70
2022/01/04 01:30:44;;;;;;;2.78;1.30;;;20.90;64.70;;;;;;5074068;27;86917;-69
2022/01/04 01:33:13;;;;;;;1.88;1.13;;;20.90;64.80;;;;;;5075274;27;86059;-69
2022/01/04 01:35:40;;;;;;;2.08;1.38;;;20.90;64.70;;;;;;5074754;27;86574;-68
2022/01/04 01:38:08;;;;;;;2.42;1.33;;;20.90;64.70;;;;;;5073802;27;85701;-72
2022/01/04 01:40:35;;;;;;;2.27;1.20;;;20.90;64.90;;;;;;5073337;27;86908;-68
2022/01/04 01:43:01;;;;;;;3.50;1.40;;;20.80;64.70;;;;;;5073863;27;85917;-72
2022/01/04 01:45:27;;;;;;;2.03;1.38;;;20.80;64.80;;;;;;5074332;27;86809;-70
2022/01/04 01:47:52;;;;;;;3.40;1.50;;;20.90;64.70;;;;;;5074183;27;86702;-70
2022/01/04 01:50:19;;;;;;;2.15;1.30;;;20.80;64.50;;;;;;5054814;27;86175;-69
2022/01/04 01:52:47;;;;;;;1.75;1.17;;;20.80;64.60;;;;;;5054604;27;86614;-72
2022/01/04 01:55:15;;;;;;;2.90;1.50;;;20.80;64.60;;;;;;5039168;27;89141;-71
2022/01/04 01:57:41;;;;;;;2.20;1.50;;;20.80;64.70;;;;;;5045078;27;89569;-72
2022/01/04 02:00:10;;;;;;;2.70;1.55;;;20.80;64.60;;;;;;5053927;27;86293;-70
2022/01/04 02:02:36;;;;;;;1.75;1.30;;;20.80;64.60;;;;;;5073806;27;86952;-70
2022/01/04 02:05:02;;;;;;;2.13;1.40;;;20.80;64.60;;;;;;5073111;27;86732;-70
2022/01/04 02:07:29;;;;;;;2.00;1.30;;;20.80;64.70;;;;;;5073855;27;86670;-73
2022/01/04 02:10:03;;;;;;;2.45;1.33;;;20.80;64.50;;;;;;5074450;27;86191;-69
2022/01/04 02:12:40;;;;;;;2.33;1.15;;;20.80;64.70;;;;;;5074619;27;86292;-70
2022/01/04 02:15:10;;;;;;;2.17;1.30;;;20.80;64.50;;;;;;5073633;27;86739;-69
2022/01/04 02:17:36;;;;;;;2.00;1.33;;;20.80;64.60;;;;;;5073284;27;86915;-69
2022/01/04 02:20:02;;;;;;;1.90;1.20;;;20.80;64.50;;;;;;5073022;27;85588;-69
2022/01/04 02:22:28;;;;;;;1.58;1.15;;;20.80;64.40;;;;;;5072774;27;86130;-68
2022/01/04 02:24:54;;;;;;;1.45;1.10;;;20.80;64.40;;;;;;5073310;27;86624;-69
2022/01/04 02:27:20;;;;;;;1.73;1.02;;;20.80;64.50;;;;;;5073222;27;86383;-69
2022/01/04 02:29:47;;;;;;;1.60;0.90;;;20.70;64.30;;;;;;5072948;27;86632;-72
2022/01/04 02:32:14;;;;;;;1.63;1.10;;;20.80;64.40;;;;;;5073509;27;86720;-70
2022/01/04 02:34:41;;;;;;;1.50;1.30;;;20.70;64.30;;;;;;5073588;27;88978;-68
2022/01/04 02:37:09;;;;;;;1.58;1.08;;;20.80;64.30;;;;;;5073442;27;85853;-68
2022/01/04 02:39:36;;;;;;;1.73;1.30;;;20.70;64.20;;;;;;5054669;27;86179;-69
2022/01/04 02:42:04;;;;;;;1.70;0.90;;;20.70;64.30;;;;;;5073470;27;86206;-69
2022/01/04 02:44:30;;;;;;;2.65;1.35;;;20.70;64.40;;;;;;5073591;27;86970;-72
2022/01/04 02:46:56;;;;;;;2.75;1.45;;;20.70;64.20;;;;;;5073207;27;87672;-70
2022/01/04 02:49:21;;;;;;;2.08;1.15;;;20.70;64.20;;;;;;5073012;27;86901;-70
2022/01/04 02:51:47;;;;;;;1.73;1.52;;;20.70;64.20;;;;;;5073283;27;86864;-68
2022/01/04 02:54:13;;;;;;;1.83;1.00;;;20.70;64.20;;;;;;5072781;27;86707;-68
2022/01/04 02:56:38;;;;;;;2.60;1.40;;;20.70;64.20;;;;;;5053380;27;87484;-71
2022/01/04 02:59:04;;;;;;;1.83;1.15;;;20.70;64.30;;;;;;5072799;27;86509;-72
2022/01/04 03:01:33;;;;;;;1.15;1.02;;;20.70;64.20;;;;;;5072618;27;86292;-71
2022/01/04 03:03:59;;;;;;;1.40;0.93;;;20.70;64.20;;;;;;5073278;27;86633;-69
2022/01/04 03:06:25;;;;;;;1.50;1.05;;;20.70;64.20;;;;;;5072622;27;85896;-69
2022/01/04 03:08:50;;;;;;;1.42;1.20;;;20.70;64.00;;;;;;5072584;27;86038;-69
2022/01/04 03:11:16;;;;;;;1.90;1.20;;;20.70;64.20;;;;;;5073544;27;86422;-69
2022/01/04 03:13:41;;;;;;;1.00;0.90;;;20.70;64.20;;;;;;5072998;27;86114;-72
2022/01/04 03:16:07;;;;;;;1.83;1.00;;;20.70;64.30;;;;;;5054055;27;89406;-70
2022/01/04 03:18:34;;;;;;;1.98;1.15;;;20.70;64.30;;;;;;5072356;27;86173;-71
2022/01/04 03:20:59;;;;;;;1.10;1.00;;;20.60;64.10;;;;;;5072475;27;86884;-71
2022/01/04 03:23:25;;;;;;;1.67;1.17;;;20.70;64.20;;;;;;5072991;27;86560;-69
2022/01/04 03:25:51;;;;;;;1.77;1.10;;;20.70;64.20;;;;;;5053831;27;88994;-69
2022/01/04 03:28:20;;;;;;;2.15;1.38;;;20.60;63.80;;;;;;5072450;27;86753;-71
2022/01/04 03:30:46;;;;;;;1.55;1.00;;;20.60;63.70;;;;;;5072374;27;85774;-70
2022/01/04 03:33:12;;;;;;;1.98;1.17;;;20.60;63.80;;;;;;5072004;27;87868;-69
2022/01/04 03:35:38;;;;;;;1.75;1.00;;;20.60;64.50;;;;;;5071867;27;86989;-69
2022/01/04 03:38:03;;;;;;;1.80;1.13;;;20.60;64.00;;;;;;5072755;27;85676;-69
2022/01/04 03:40:29;;;;;;;1.88;1.20;;;20.60;63.80;;;;;;5053354;27;86069;-70
2022/01/04 03:42:55;;;;;;;1.92;1.00;;;20.60;63.80;;;;;;5072813;27;88298;-69
2022/01/04 03:45:20;;;;;;;2.13;1.27;;;20.60;64.10;;;;;;5072479;27;86257;-70
2022/01/04 03:47:46;;;;;;;1.90;1.10;;;20.60;64.00;;;;;;5072696;27;85998;-69
2022/01/04 03:50:12;;;;;;;1.40;1.10;;;20.60;63.60;;;;;;5071407;27;86166;-69
2022/01/04 03:52:38;;;;;;;1.38;1.08;;;20.60;63.50;;;;;;5071208;27;86898;-69
2022/01/04 03:55:08;;;;;;;1.30;1.00;;;20.60;63.60;;;;;;5072199;27;86491;-70
2022/01/04 03:57:35;;;;;;;1.70;1.17;;;20.60;63.50;;;;;;5036489;27;86793;-69
2022/01/04 04:00:03;;;;;;;1.08;0.93;;;20.60;63.60;;;;;;5072529;27;86400;-68
2022/01/04 04:02:28;;;;;;;1.30;1.00;;;20.60;63.50;;;;;;5071653;27;87085;-69
2022/01/04 04:04:54;;;;;;;2.45;1.10;;;20.60;63.50;;;;;;5071049;27;86516;-70
2022/01/04 04:07:19;;;;;;;1.90;1.08;;;20.60;63.60;;;;;;5071123;27;86936;-72
2022/01/04 04:09:45;;;;;;;1.35;0.93;;;20.50;63.60;;;;;;5072872;27;86134;-71
2022/01/04 04:12:14;;;;;;;1.00;0.85;;;20.60;63.40;;;;;;5072429;27;85605;-69
2022/01/04 04:14:40;;;;;;;1.88;1.20;;;20.60;63.60;;;;;;5071811;27;87495;-70
2022/01/04 04:17:06;;;;;;;1.48;1.20;;;20.60;63.70;;;;;;5071470;27;86165;-72
2022/01/04 04:19:31;;;;;;;1.63;1.10;;;20.60;63.60;;;;;;5072350;27;86306;-70
2022/01/04 04:21:57;;;;;;;2.00;1.00;;;20.50;63.50;;;;;;5053307;27;89308;-69
2022/01/04 04:24:22;;;;;;;1.27;0.90;;;20.50;63.50;;;;;;5071897;27;86529;-72
2022/01/04 04:26:48;;;;;;;1.30;0.98;;;20.50;63.50;;;;;;5071422;27;86333;-70
2022/01/04 04:29:14;;;;;;;1.40;1.02;;;20.60;63.60;;;;;;5071930;27;86393;-72
2022/01/04 04:31:39;;;;;;;1.15;0.80;;;20.50;63.50;;;;;;5071689;27;86277;-70
2022/01/04 04:34:05;;;;;;;1.63;1.10;;;20.50;63.50;;;;;;5071207;27;86378;-72
2022/01/04 04:36:31;;;;;;;2.33;1.00;;;20.50;63.50;;;;;;5072216;27;86684;-69
2022/01/04 04:38:56;;;;;;;1.40;0.95;;;20.50;63.50;;;;;;5071199;27;86216;-69
2022/01/04 04:41:22;;;;;;;2.42;0.88;;;20.50;63.60;;;;;;5052893;27;89325;-69
2022/01/04 04:43:53;;;;;;;1.35;1.00;;;20.50;63.50;;;;;;5070846;27;86805;-71
2022/01/04 04:46:19;;;;;;;1.50;1.17;;;20.50;63.50;;;;;;5075167;27;85990;-69
2022/01/04 04:48:44;;;;;;;1.35;1.10;;;20.50;63.30;;;;;;5074941;27;86377;-69
2022/01/04 04:51:10;;;;;;;0.90;0.80;;;20.50;63.50;;;;;;5074781;27;86771;-72
2022/01/04 04:53:35;;;;;;;1.23;1.00;;;20.50;63.40;;;;;;5074340;27;86803;-73
2022/01/04 04:56:01;;;;;;;0.98;0.90;;;20.50;63.30;;;;;;5074246;27;86889;-69
2022/01/04 04:58:27;;;;;;;1.02;0.80;;;20.40;63.20;;;;;;5074702;27;85642;-70
2022/01/04 05:00:52;;;;;;;0.80;0.80;;;20.50;63.40;;;;;;5074891;27;86617;-70
2022/01/04 05:03:18;;;;;;;2.08;0.90;;;20.50;63.50;;;;;;5074148;27;86905;-71
2022/01/04 05:05:44;;;;;;;1.98;1.08;;;20.40;63.30;;;;;;5075062;27;86162;-69
2022/01/04 05:08:10;;;;;;;1.10;0.80;;;20.50;63.20;;;;;;5044468;27;86078;-69
2022/01/04 05:10:35;;;;;;;1.00;0.93;;;20.50;63.30;;;;;;5054738;27;87680;-69
2022/01/04 05:13:01;;;;;;;1.02;0.73;;;20.50;63.30;;;;;;5074784;27;86326;-72
2022/01/04 05:15:26;;;;;;;1.30;1.02;;;20.50;63.30;;;;;;5074176;27;86308;-70
2022/01/04 05:17:52;;;;;;;0.75;0.70;;;20.50;63.40;;;;;;5074576;27;86241;-73
2022/01/04 05:20:20;;;;;;;1.27;0.90;;;20.40;63.40;;;;;;5074525;27;86756;-70
2022/01/04 05:22:46;;;;;;;1.00;0.90;;;20.50;63.40;;;;;;5073923;27;87209;-69
2022/01/04 05:25:11;;;;;;;0.95;0.80;;;20.40;63.40;;;;;;5073856;27;86020;-70
2022/01/04 05:27:37;;;;;;;0.98;0.70;;;20.40;63.40;;;;;;5073217;27;86752;-70
2022/01/04 05:30:04;;;;;;;1.10;1.00;;;20.40;63.30;;;;;;5075129;27;86292;-68
2022/01/04 05:32:30;;;;;;;1.17;0.98;;;20.40;63.20;;;;;;5073857;27;86579;-73
2022/01/04 05:34:55;;;;;;;1.10;0.80;;;20.40;63.00;;;;;;5074388;27;86544;-69
2022/01/04 05:37:21;;;;;;;1.00;0.88;;;20.40;63.20;;;;;;5046576;27;86104;-71
2022/01/04 05:39:50;;;;;;;0.70;0.70;;;20.40;63.10;;;;;;5074640;27;86676;-68
2022/01/04 05:42:17;;;;;;;1.38;1.00;;;20.40;63.20;;;;;;5074238;27;86888;-69
2022/01/04 05:44:43;;;;;;;1.08;0.77;;;20.40;63.10;;;;;;5074518;27;86215;-69
2022/01/04 05:47:09;;;;;;;0.95;0.80;;;20.40;63.20;;;;;;5075036;27;85721;-71
2022/01/04 05:49:34;;;;;;;1.13;0.90;;;20.30;63.10;;;;;;5074529;27;87002;-71
2022/01/04 05:52:00;;;;;;;1.27;0.93;;;20.40;63.10;;;;;;5073588;27;86621;-71
2022/01/04 05:54:26;;;;;;;1.23;0.90;;;20.40;63.00;;;;;;5074126;27;86771;-68
2022/01/04 05:56:51;;;;;;;1.38;1.10;;;20.40;63.00;;;;;;5073096;27;86062;-70
2022/01/04 05:59:18;;;;;;;0.70;0.70;;;20.40;63.10;;;;;;5073294;27;86742;-72
2022/01/04 06:01:43;;;;;;;1.08;0.98;;;20.40;63.20;;;;;;5074017;27;87081;-69
2022/01/04 06:04:10;;;;;;;1.90;1.00;;;20.30;62.80;;;;;;5073832;27;85842;-70
2022/01/04 06:06:36;;;;;;;0.70;0.70;;;20.40;63.00;;;;;;5074377;27;86413;-69
2022/01/04 06:09:02;;;;;;;1.13;0.80;;;20.30;62.90;;;;;;5073906;27;86368;-69
2022/01/04 06:11:44;;;;;;;1.20;1.10;;;20.30;62.90;;;;;;5072802;27;86433;-73
2022/01/04 06:16:54;;;;;;;1.20;1.00;;;20.30;63.30;;;;;;5074082;27;86272;-69
2022/01/04 06:19:19;;;;;;;1.38;0.80;;;20.30;63.10;;;;;;5073269;27;86845;-71
2022/01/04 06:21:45;;;;;;;0.80;0.80;;;20.30;63.20;;;;;;5073250;27;86440;-71
2022/01/04 06:24:11;;;;;;;0.82;0.70;;;20.30;63.20;;;;;;5073090;27;86338;-69
2022/01/04 06:26:36;;;;;;;1.00;0.90;;;20.30;63.00;;;;;;5073423;27;86260;-70
2022/01/04 06:29:05;;;;;;;1.52;0.80;;;20.30;63.00;;;;;;5073335;27;86417;-72
2022/01/04 06:31:30;;;;;;;1.25;0.77;;;20.30;63.10;;;;;;5073388;27;87094;-69
2022/01/04 06:33:56;;;;;;;1.40;0.82;;;20.30;63.20;;;;;;5073151;27;86536;-69
2022/01/04 06:36:22;;;;;;;0.85;0.80;;;20.30;63.20;;;;;;5073447;27;85706;-71
2022/01/04 06:38:47;;;;;;;1.25;0.80;;;20.30;63.20;;;;;;5072821;27;87374;-70
2022/01/04 06:41:13;;;;;;;1.35;1.00;;;20.30;63.20;;;;;;5073800;27;86603;-69
2022/01/04 06:43:39;;;;;;;2.30;0.73;;;20.30;63.10;;;;;;5073690;27;86523;-69
2022/01/04 06:46:04;;;;;;;1.13;0.85;;;20.30;62.90;;;;;;5073547;27;86376;-71
2022/01/04 06:48:30;;;;;;;0.90;0.80;;;20.30;63.00;;;;;;5073169;27;86907;-68
2022/01/04 06:50:57;;;;;;;0.88;0.80;;;20.30;63.50;;;;;;5071379;27;86361;-69
2022/01/04 06:53:23;;;;;;;1.30;1.00;;;20.30;63.50;;;;;;5071843;27;86466;-69
2022/01/04 06:55:50;;;;;;;6.75;1.83;;;20.30;63.60;;;;;;5072603;27;85937;-69
2022/01/04 06:58:17;;;;;;;1.48;0.90;;;20.30;63.50;;;;;;5072378;27;86919;-69
2022/01/04 07:00:43;;;;;;;1.75;0.80;;;20.30;63.40;;;;;;5073084;27;86278;-69
2022/01/04 07:03:08;;;;;;;3.17;1.00;;;20.30;63.40;;;;;;5073205;27;86180;-70
2022/01/04 07:05:35;;;;;;;1.10;1.00;;;20.30;63.50;;;;;;5040612;27;85690;-70
2022/01/04 07:08:01;;;;;;;1.63;1.20;;;20.30;63.60;;;;;;5071216;27;86336;-71
2022/01/04 07:10:27;;;;;;;2.22;1.20;;;20.40;64.70;;;;;;5071784;27;86549;-69
2022/01/04 07:12:53;;;;;;;2.15;1.30;;;20.40;64.40;;;;;;5074459;27;86440;-71
2022/01/04 07:15:18;;;;;;;0.93;0.82;;;20.40;64.30;;;;;;5072503;27;86725;-69
2022/01/04 07:17:44;;;;;;;2.20;1.30;;;20.50;64.30;;;;;;5072665;27;86491;-70
2022/01/04 07:20:10;;;;;;;3.58;1.23;;;20.50;64.70;;;;;;5073501;27;86423;-69
2022/01/04 07:22:36;;;;;;;15.85;3.05;;;20.60;64.90;;;;;;5072784;27;87011;-70
2022/01/04 07:25:06;;;;;;;6.32;1.85;;;20.60;64.60;;;;;;5050589;27;86079;-69
2022/01/04 07:27:32;;;;;;;5.00;1.88;;;20.70;64.90;;;;;;5072260;27;88121;-70
2022/01/04 07:29:58;;;;;;;3.25;1.52;;;20.80;65.30;;;;;;5071439;27;88106;-70
2022/01/04 07:32:24;;;;;;;4.80;1.75;;;20.80;65.20;;;;;;5046090;27;86527;-71
2022/01/04 07:34:49;;;;;;;5.85;1.58;;;20.80;65.40;;;;;;5072616;27;86097;-70
2022/01/04 07:37:15;;;;;;;4.30;1.75;;;20.80;65.30;;;;;;5072736;27;86820;-73
2022/01/04 07:39:41;;;;;;;6.97;1.67;;;20.80;65.60;;;;;;5073113;27;86298;-70
2022/01/04 07:42:07;;;;;;;4.15;1.75;;;20.80;64.50;;;;;;5053910;27;86815;-69
2022/01/04 07:44:33;;;;;;;11.70;2.47;;;20.80;63.30;;;;;;5072766;27;85899;-69
2022/01/04 07:46:58;;;;;;;15.52;4.95;;;20.90;63.90;;;;;;5040207;27;89573;-71
2022/01/04 07:49:25;;;;;;;10.05;3.70;;;20.90;63.30;;;;;;5070979;27;86424;-70
2022/01/04 07:51:50;;;;;;;11.50;3.10;;;21.00;63.00;;;;;;5044871;27;86512;-69
2022/01/04 07:54:16;;;;;;;9.95;2.58;;;21.00;63.40;;;;;;5070476;27;86248;-71
2022/01/04 07:56:42;;;;;;;9.30;3.00;;;21.00;62.60;;;;;;5040698;27;88815;-72
2022/01/04 07:59:07;;;;;;;7.50;2.45;;;21.00;62.50;;;;;;5057732;27;86963;-72
2022/01/04 08:01:33;;;;;;;10.25;3.00;;;21.00;61.70;;;;;;5067153;27;86488;-72
2022/01/04 08:04:05;;;;;;;9.25;3.03;;;21.00;61.70;;;;;;5069902;27;85787;-73
2022/01/04 08:06:31;;;;;;;12.60;3.00;;;21.00;62.00;;;;;;5035386;27;90963;-71
2022/01/04 08:08:57;;;;;;;14.18;3.30;;;21.00;61.60;;;;;;4975089;27;86492;-68
2022/01/04 08:11:28;;;;;;;7.05;2.40;;;21.00;62.10;;;;;;5003841;28;85666;-71
2022/01/04 08:13:54;;;;;;;9.82;2.50;;;21.00;60.20;;;;;;4996397;28;86501;-71
2022/01/04 08:16:20;;;;;;;8.93;2.88;;;21.00;59.90;;;;;;5004373;28;86243;-70
2022/01/04 08:18:45;;;;;;;11.93;3.75;;;20.90;60.20;;;;;;5009020;28;86712;-72
2022/01/04 08:21:11;;;;;;;12.20;3.38;;;21.00;60.90;;;;;;5009018;28;86588;-69
2022/01/04 08:23:37;;;;;;;101.00;17.35;;;20.90;60.70;;;;;;5008682;28;86645;-69
2022/01/04 08:26:03;;;;;;;49.53;10.68;;;21.00;59.60;;;;;;5021636;28;89106;-70
2022/01/04 08:28:29;;;;;;;53.17;9.32;;;21.00;59.70;;;;;;5007802;28;88126;-70
2022/01/04 08:30:55;;;;;;;42.90;9.20;;;21.00;60.50;;;;;;5000560;28;86421;-73
2022/01/04 08:33:21;;;;;;;43.95;8.38;;;21.00;59.90;;;;;;5009724;28;86555;-69
2022/01/04 08:35:47;;;;;;;46.13;9.25;;;21.00;60.10;;;;;;5009419;28;87567;-70
2022/01/04 08:38:13;;;;;;;41.08;8.45;;;21.00;61.20;;;;;;5010294;28;86866;-73
2022/01/04 08:40:39;;;;;;;39.13;8.05;;;20.90;61.40;;;;;;5009757;28;86314;-69
2022/01/04 08:43:05;;;;;;;41.10;8.27;;;21.00;61.70;;;;;;5010758;28;86426;-74
2022/01/04 08:45:31;;;;;;;35.33;8.10;;;20.90;62.50;;;;;;5011288;28;87071;-69
2022/01/04 08:47:57;;;;;;;33.55;7.68;;;20.90;62.00;;;;;;5010752;28;86236;-69
2022/01/04 08:50:23;;;;;;;40.08;8.07;;;20.90;62.00;;;;;;5010509;28;86536;-73
2022/01/04 08:52:54;;;;;;;29.00;7.30;;;21.00;62.10;;;;;;5010085;28;86749;-71
2022/01/04 08:55:21;;;;;;;30.45;8.07;;;21.00;62.10;;;;;;5010420;28;87419;-70
2022/01/04 08:57:47;;;;;;;39.85;8.38;;;21.00;62.30;;;;;;5010103;28;86518;-69
2022/01/04 09:00:13;;;;;;;25.48;7.45;;;21.00;62.30;;;;;;5009901;28;86635;-72
2022/01/04 09:02:39;;;;;;;30.52;7.32;;;21.00;62.40;;;;;;5011270;28;86015;-70
2022/01/04 09:05:06;;;;;;;32.28;8.10;;;21.00;62.50;;;;;;5010026;28;86588;-69
2022/01/04 09:07:34;;;;;;;28.02;7.57;;;21.00;62.70;;;;;;5010058;28;86776;-72
2022/01/04 09:10:00;;;;;;;33.35;7.93;;;21.00;62.60;;;;;;5008982;28;86047;-73
2022/01/04 09:12:37;;;;;;;27.10;7.32;;;21.00;63.00;;;;;;5009698;28;86089;-71
2022/01/04 09:15:28;;;;;;;30.83;7.68;;;21.00;63.10;;;;;;5008367;28;89651;-69
2022/01/04 09:20:36;;;;;;;28.33;7.00;;;21.00;63.50;;;;;;5010289;28;86817;-72
2022/01/04 09:23:02;;;;;;;25.92;6.90;;;21.00;63.40;;;;;;5010425;28;85984;-73
2022/01/04 09:25:27;;;;;;;28.33;7.30;;;21.00;63.50;;;;;;5010251;28;86781;-70
2022/01/04 09:27:53;;;;;;;25.35;7.38;;;21.00;63.70;;;;;;5010352;28;87329;-71
2022/01/04 09:30:19;;;;;;;29.38;7.03;;;21.00;63.20;;;;;;5010753;28;85813;-69
2022/01/04 09:32:44;;;;;;;27.17;7.50;;;21.00;63.20;;;;;;5014163;28;85699;-70
2022/01/04 09:35:12;;;;;;;26.40;7.05;;;21.00;63.30;;;;;;5013209;28;87835;-70
2022/01/04 09:37:39;;;;;;;26.63;6.78;;;21.00;63.40;;;;;;5012901;28;86460;-70
2022/01/04 09:40:05;;;;;;;24.52;7.10;;;21.00;63.40;;;;;;5013625;28;85652;-69
2022/01/04 09:42:31;;;;;;;22.05;6.70;;;21.00;63.40;;;;;;5014075;28;85937;-72
2022/01/04 09:44:57;;;;;;;19.17;6.85;;;21.00;63.40;;;;;;5012894;28;86715;-69
2022/01/04 09:47:23;;;;;;;24.70;6.80;;;21.00;63.40;;;;;;5012587;28;86111;-72
2022/01/04 09:49:49;;;;;;;23.48;7.30;;;21.00;63.40;;;;;;5013201;28;86457;-72
2022/01/04 09:52:19;;;;;;;25.25;7.20;;;21.00;63.50;;;;;;5013100;28;85644;-71
2022/01/04 09:54:46;;;;;;;25.05;6.57;;;21.00;63.50;;;;;;5014184;28;87236;-71
2022/01/04 09:57:15;;;;;;;21.35;6.35;;;21.00;63.50;;;;;;5013611;28;86417;-72
2022/01/04 09:59:41;;;;;;;22.70;6.72;;;21.00;63.40;;;;;;5013831;28;86076;-69
2022/01/04 10:02:18;;;;;;;23.85;6.35;;;21.00;63.40;;;;;;5013535;28;86147;-70
2022/01/04 10:04:44;;;;;;;18.20;5.75;;;21.00;63.40;;;;;;5011929;28;87219;-70
2022/01/04 10:07:10;;;;;;;19.92;6.45;;;21.00;63.60;;;;;;5013158;28;85874;-69
2022/01/04 10:09:48;;;;;;;22.38;6.95;;;21.00;63.50;;;;;;5011172;28;86840;-72
2022/01/04 10:12:18;;;;;;;18.05;5.55;;;21.00;62.00;;;;;;5011877;28;86605;-70
2022/01/04 10:14:46;;;;;;;19.50;5.82;;;21.00;60.90;;;;;;5012626;28;86946;-69
2022/01/04 10:17:15;;;;;;;21.10;6.47;;;21.00;61.40;;;;;;5012855;28;86465;-69
2022/01/04 10:19:53;;;;;;;15.40;5.63;;;21.00;62.20;;;;;;5013155;28;86049;-68
2022/01/04 10:22:34;;;;;;;25.55;6.68;;;21.00;62.30;;;;;;5012600;28;86545;-72
2022/01/04 10:25:02;;;;;;;15.63;5.28;;;21.10;62.90;;;;;;5012033;28;86905;-70
2022/01/04 10:27:34;;;;;;;21.63;5.63;;;21.10;63.20;;;;;;5009126;28;86219;-72
2022/01/04 10:30:21;;;;;;;21.90;6.20;;;21.10;62.70;;;;;;5011152;28;85916;-70
2022/01/04 10:32:51;;;;;;;22.85;5.63;;;21.10;62.80;;;;;;5011767;28;86619;-69
2022/01/04 10:35:23;;;;;;;20.75;5.90;;;21.10;62.80;;;;;;5011110;28;87369;-69
2022/01/04 10:37:49;;;;;;;15.30;5.63;;;21.10;62.60;;;;;;5011213;28;85927;-69
2022/01/04 10:40:14;;;;;;;20.50;5.35;;;21.10;62.90;;;;;;5011161;28;88513;-70
2022/01/04 10:42:40;;;;;;;19.27;5.32;;;21.10;63.10;;;;;;5011697;28;85710;-70
2022/01/04 10:45:22;;;;;;;19.50;5.70;;;21.10;63.30;;;;;;5009145;28;89788;-70
2022/01/04 10:47:48;;;;;;;13.10;5.45;;;21.10;63.50;;;;;;5011047;28;85966;-72
2022/01/04 10:50:37;;;;;;;17.27;4.55;;;21.10;63.50;;;;;;5011301;28;86672;-69
2022/01/04 10:53:04;;;;;;;15.80;5.15;;;21.20;64.20;;;;;;5011260;28;86802;-71
2022/01/04 10:55:35;;;;;;;13.70;5.18;;;21.10;64.00;;;;;;5011303;28;87494;-70
2022/01/04 10:58:04;;;;;;;15.65;5.55;;;21.10;63.90;;;;;;5011352;28;86841;-70
2022/01/04 11:00:31;;;;;;;15.65;5.53;;;21.20;64.20;;;;;;5010815;28;86396;-69
2022/01/04 11:02:58;;;;;;;19.58;5.38;;;21.10;64.30;;;;;;5026282;28;86398;-71
2022/01/04 11:05:24;;;;;;;16.92;5.25;;;21.10;64.60;;;;;;5011709;28;86764;-70
2022/01/04 11:10:32;;;;;;;15.95;5.57;;;21.20;65.90;;;;;;4972202;28;85942;-85
2022/01/04 11:12:59;;;;;;;18.05;5.40;;;21.20;65.40;;;;;;4956494;28;86801;-87
2022/01/04 11:15:25;;;;;;;16.20;5.90;;;21.20;65.60;;;;;;4974585;28;87013;-89
2022/01/04 11:17:51;;;;;;;17.33;5.22;;;21.20;65.40;;;;;;4974579;28;86238;-89
2022/01/04 11:20:17;;;;;;;22.20;5.30;;;21.20;65.40;;;;;;4974561;28;86047;-88
2022/01/04 11:22:47;;;;;;;19.63;4.72;;;21.20;65.10;;;;;;4955797;28;86427;-84
2022/01/04 11:25:16;;;;;;;18.83;4.38;;;21.30;65.40;;;;;;4972288;28;86823;-84
2022/01/04 11:27:52;;;;;;;18.13;5.17;;;21.30;65.30;;;;;;4955184;28;88147;-84
2022/01/04 11:30:25;;;;;;;18.20;5.25;;;21.20;64.20;;;;;;4963554;28;86450;-86
2022/01/04 11:32:57;;;;;;;16.60;5.13;;;21.30;64.70;;;;;;4974124;28;86359;-87
2022/01/04 11:35:24;;;;;;;21.73;5.30;;;21.30;64.90;;;;;;4972141;28;90278;-83
2022/01/04 11:37:55;;;;;;;16.52;4.50;;;21.30;65.40;;;;;;4955164;28;87744;-85
2022/01/04 11:40:23;;;;;;;12.10;4.57;;;21.30;64.50;;;;;;4877577;28;85776;-85
2022/01/04 11:42:49;;;;;;;14.90;3.95;;;21.30;63.40;;;;;;4955647;28;86900;-86
2022/01/04 11:45:16;;;;;;;16.83;4.35;;;21.30;64.10;;;;;;4955990;28;88569;-85
2022/01/04 11:47:48;;;;;;;16.08;4.97;;;21.30;64.30;;;;;;4969656;28;86298;-85
2022/01/04 11:50:34;;;;;;;13.15;4.85;;;21.30;62.10;;;;;;4972432;28;86334;-84
2022/01/04 11:53:06;;;;;;;13.48;5.15;;;21.30;63.10;;;;;;4971916;28;86641;-85
2022/01/04 11:55:36;;;;;;;15.50;5.30;;;21.30;64.60;;;;;;4971725;28;86627;-85
2022/01/04 11:58:14;;;;;;;14.65;6.10;;;21.30;64.50;;;;;;4971635;28;86331;-84
2022/01/04 12:00:55;;;;;;;16.15;6.18;;;21.30;65.00;;;;;;4971205;28;85969;-86
2022/01/04 12:03:40;;;;;;;14.25;5.25;;;21.30;65.20;;;;;;4951913;28;85985;-86
2022/01/04 12:06:07;;;;;;;10.63;4.63;;;21.30;62.60;;;;;;4969182;28;86724;-85
2022/01/04 12:08:36;;;;;;;15.68;5.68;;;21.30;62.90;;;;;;4951381;28;89733;-86
2022/01/04 12:11:02;;;;;;;14.67;4.93;;;21.30;63.50;;;;;;4969872;28;85895;-87
2022/01/04 12:13:51;;;;;;;17.58;4.75;;;21.30;64.00;;;;;;4969194;28;86035;-84
2022/01/04 12:16:33;;;;;;;15.20;4.50;;;21.30;64.30;;;;;;4949114;28;88422;-86
2022/01/04 12:19:01;;;;;;;12.52;4.53;;;21.30;64.30;;;;;;4969347;28;89121;-86
2022/01/04 12:21:33;;;;;;;16.40;4.60;;;21.30;64.50;;;;;;4952723;28;86147;-85
2022/01/04 12:23:59;;;;;;;10.68;4.35;;;21.30;64.70;;;;;;4969331;28;86495;-84
2022/01/04 12:26:27;;;;;;;10.45;4.70;;;21.30;64.50;;;;;;4971303;28;86413;-85
2022/01/04 12:28:55;;;;;;;13.35;4.50;;;21.30;64.00;;;;;;4970354;28;86427;-85
2022/01/04 12:31:24;;;;;;;13.57;4.47;;;21.30;64.20;;;;;;4970796;28;86092;-86
2022/01/04 12:34:04;;;;;;;9.38;4.15;;;21.30;64.60;;;;;;4971258;28;86131;-86
2022/01/04 12:36:43;;;;;;;9.57;4.30;;;21.30;64.70;;;;;;4970065;28;87771;-87
2022/01/04 12:39:21;;;;;;;15.95;4.05;;;21.30;64.90;;;;;;4969438;28;89618;-85
2022/01/04 12:41:51;;;;;;;10.00;3.78;;;21.30;64.30;;;;;;4970663;28;86154;-84
2022/01/04 12:46:46;;;;;;;13.15;4.78;;;21.30;64.70;;;;;;4937180;28;89408;-86
2022/01/04 12:49:14;;;;;;;12.63;4.55;;;21.30;64.90;;;;;;4953086;28;89204;-86
2022/01/04 12:51:47;;;;;;;10.40;4.30;;;21.30;64.90;;;;;;4970179;28;86787;-87
2022/01/04 12:54:18;;;;;;;14.00;4.57;;;21.30;64.90;;;;;;4972257;28;87138;-86
2022/01/04 12:56:54;;;;;;;11.98;4.00;;;21.30;64.00;;;;;;4971960;28;87211;-86
2022/01/04 12:59:22;;;;;;;11.23;4.60;;;21.30;62.70;;;;;;4952983;28;89358;-86